^^

..:: Storico WU ::..




Lo storico viene creato da WUnderground con i dati che la stazione Meteomincio invia al loro server. L' aggiornamento viene fatto ogni 5 minuti circa, tuttavia possono esserci intervalli pi¨ ampi a causa di errori, interruzioni di servizio o problemi nell' invio tramite FTP.


Storico stazione MeteoMincio
Giorno Sommario per Agosto 17, 2022 Unità:  Inglese    Metrico   Entrambi
Giorno Settimana Mese Anno
  Max: Min: Media:
Temperatura: 88 °F 70 °F 77.5 °F
Dew Point: 74.1 °F 65.3 °F 69.6 °F
Umidità: 92% 60.8% 77%
Velocità vento: 9.4mph 0mph 3.7mph
Raffica: 17.3mph - -
Direzione- - ESE
Pressione: 29.9 in 29.8 in -
Precipitazioni: 0.02 in    
 
 
Tabulato Dati per Agosto 17, 2022
Ora Temperatura Dew Point Pressione Direzione Velocità vento Raffica Umidità Intensità pioggia (oraria) Info solare Situazione
00:04 76.3 °F 68.9 °F 29.9 in ENE 3 mph 5 mph 78% 0 in 0 W/m2
00:09 76.1 °F 69.1 °F 29.9 in NE 4.3 mph 7 mph 78.6% 0 in 0 W/m2
00:14 75.9 °F 68.9 °F 29.9 in NE 3.4 mph 7 mph 79% 0 in 0 W/m2
00:19 75.7 °F 69.1 °F 29.9 in NE 3.6 mph 5 mph 79.7% 0 in 0 W/m2
00:24 75.4 °F 68.9 °F 29.9 in NE 4.3 mph 7 mph 80% 0 in 0 W/m2
00:29 75.2 °F 68.7 °F 29.9 in NE 5 mph 8.1 mph 80.4% 0 in 0 W/m2
00:34 75 °F 68.9 °F 29.9 in NE 4.3 mph 8 mph 81% 0 in 0 W/m2
00:39 74.8 °F 68.7 °F 29.9 in NE 5.4 mph 8.1 mph 81% 0 in 0 W/m2
00:44 74.7 °F 68.5 °F 29.9 in NE 4.8 mph 8.1 mph 81% 0 in 0 W/m2
00:49 74.7 °F 68.5 °F 29.9 in ENE 3.7 mph 8 mph 81.8% 0 in 0 W/m2
00:54 74.3 °F 68.4 °F 29.9 in ENE 4.3 mph 8.1 mph 82% 0 in 0 W/m2
00:59 74.1 °F 68.2 °F 29.9 in ENE 5.3 mph 8.1 mph 82% 0 in 0 W/m2
01:04 73.9 °F 68.4 °F 29.9 in ENE 4.3 mph 8 mph 82.7% 0 in 0 W/m2
01:09 73.8 °F 68.4 °F 29.9 in NE 4.7 mph 7 mph 83% 0 in 0 W/m2
01:14 73.8 °F 68.2 °F 29.9 in NE 4.7 mph 7 mph 83% 0 in 0 W/m2
01:19 73.8 °F 68.2 °F 29.9 in NE 5.2 mph 9.2 mph 83% 0 in 0 W/m2
01:24 73.8 °F 68.2 °F 29.9 in ENE 4.2 mph 9 mph 83% 0 in 0 W/m2
01:29 73.6 °F 68 °F 29.9 in ENE 3.7 mph 7 mph 83% 0 in 0 W/m2
01:34 73.4 °F 67.8 °F 29.9 in ENE 4.5 mph 8.1 mph 83% 0 in 0 W/m2
01:39 73.2 °F 67.8 °F 29.9 in ENE 3.7 mph 8.1 mph 83% 0 in 0 W/m2
01:44 73.2 °F 67.8 °F 29.9 in ENE 2.7 mph 5 mph 83.3% 0 in 0 W/m2
01:49 73 °F 68 °F 29.9 in ENE 2.4 mph 4 mph 84% 0 in 0 W/m2
01:54 73 °F 68 °F 29.9 in ENE 3.1 mph 5 mph 83.9% 0 in 0 W/m2
01:59 72.9 °F 67.5 °F 29.9 in ENE 3.4 mph 5 mph 83.2% 0 in 0 W/m2
02:04 72.9 °F 67.6 °F 29.9 in NE 3.3 mph 5 mph 84% 0 in 0 W/m2
02:09 72.7 °F 67.6 °F 29.9 in NE 3.5 mph 5 mph 84% 0 in 0 W/m2
02:14 72.9 °F 67.6 °F 29.9 in ENE 3.5 mph 5 mph 84% 0 in 0 W/m2
02:19 72.9 °F 67.6 °F 29.9 in ENE 4.1 mph 7 mph 83.9% 0 in 0 W/m2
02:24 72.7 °F 67.6 °F 29.9 in ENE 3.9 mph 7 mph 84% 0 in 0 W/m2
02:29 72.7 °F 67.5 °F 29.9 in ENE 4 mph 7 mph 84% 0 in 0 W/m2
02:34 72.5 °F 67.5 °F 29.9 in ENE 3.2 mph 7 mph 84% 0 in 0 W/m2
02:39 72.5 °F 67.5 °F 29.9 in ENE 0.5 mph 2.3 mph 84% 0 in 0 W/m2
02:44 72.5 °F 67.3 °F 29.9 in Calm   2 mph 84% 0 in 0 W/m2
02:49 72.3 °F 67.3 °F 29.9 in ENE 1.2 mph 3.5 mph 84.2% 0 in 0 W/m2
02:54 72.1 °F 67.3 °F 29.9 in ENE 2.1 mph 3.5 mph 84.8% 0 in 0 W/m2
02:59 72.1 °F 67.3 °F 29.9 in ENE 1.2 mph 3.5 mph 85% 0 in 0 W/m2
03:04 72 °F 67.3 °F 29.9 in ENE 1.8 mph 3.5 mph 85% 0 in 0 W/m2
03:09 72 °F 67.3 °F 29.9 in ENE 1.6 mph 3.5 mph 85% 0 in 0 W/m2
03:14 72.1 °F 67.3 °F 29.9 in ENE 0.4 mph 3 mph 84.5% 0 in 0 W/m2
03:19 72.1 °F 67.1 °F 29.9 in Calm   2 mph 84.2% 0 in 0 W/m2
03:24 72.1 °F 67.3 °F 29.9 in Calm     85% 0 in 0 W/m2
03:29 72 °F 67.3 °F 29.9 in Calm     85% 0 in 0 W/m2
03:34 72 °F 67.1 °F 29.9 in Calm     85% 0 in 0 W/m2
03:39 71.8 °F 66.9 °F 29.9 in East 0.2 mph 3 mph 85% 0 in 0 W/m2
03:44 71.6 °F 66.7 °F 29.9 in East 2.4 mph 5 mph 85% 0 in 0 W/m2
03:49 71.8 °F 66.7 °F 29.9 in East 2.9 mph 5 mph 84.3% 0 in 0 W/m2
03:54 72 °F 66.6 °F 29.9 in East 2.1 mph 5 mph 83.2% 0 in 0 W/m2
03:59 72 °F 66.6 °F 29.9 in East 2.1 mph 5 mph 83% 0 in 0 W/m2
04:04 72 °F 66.6 °F 29.9 in ENE 2.9 mph 5 mph 83% 0 in 0 W/m2
04:09 71.8 °F 66.4 °F 29.9 in ENE 1.9 mph 5 mph 83% 0 in 0 W/m2
04:14 71.8 °F 66.4 °F 29.9 in East 2 mph 5 mph 83% 0 in 0 W/m2
04:19 71.6 °F 66.2 °F 29.9 in ENE 2.4 mph 5 mph 82.8% 0 in 0 W/m2
04:24 71.6 °F 65.8 °F 29.9 in ENE 2.8 mph 5 mph 82% 0 in 0 W/m2
04:29 71.6 °F 66 °F 29.9 in ENE 1.6 mph 5 mph 82.7% 0 in 0 W/m2
04:34 71.4 °F 66 °F 29.9 in East 1.9 mph 3.5 mph 83% 0 in 0 W/m2
04:39 71.2 °F 65.8 °F 29.9 in East 2.1 mph 4 mph 83% 0 in 0 W/m2
04:44 71.1 °F 65.7 °F 29.9 in East 2.3 mph 5 mph 83% 0 in 0 W/m2
04:49 70.9 °F 65.7 °F 29.9 in East 2.4 mph 5 mph 83.6% 0 in 0 W/m2
04:54 70.7 °F 65.3 °F 29.9 in East 2.5 mph 5 mph 83.2% 0 in 0 W/m2
04:59 70.7 °F 65.5 °F 29.9 in East 2 mph 5 mph 83.7% 0 in 0 W/m2
05:04 70.7 °F 65.3 °F 29.9 in East 3.1 mph 5 mph 83% 0 in 0 W/m2
05:09 70.7 °F 65.3 °F 29.9 in ENE 4 mph 6 mph 83% 0 in 0 W/m2
05:14 70.5 °F 65.3 °F 29.9 in ENE 3.9 mph 6 mph 83.5% 0 in 0 W/m2
05:19 70.7 °F 65.5 °F 29.9 in ENE 3.8 mph 6 mph 83.8% 0 in 0 W/m2
05:24 70.7 °F 65.5 °F 29.9 in East 3.5 mph 8.1 mph 84% 0 in 0 W/m2
05:29 70.7 °F 65.7 °F 29.9 in East 3.7 mph 8 mph 84% 0 in 0 W/m2
05:34 70.7 °F 65.5 °F 29.9 in East 3.1 mph 7 mph 84% 0 in 0 W/m2
05:39 70.5 °F 65.5 °F 29.9 in ENE 4.2 mph 7 mph 84% 0 in 0 W/m2
05:44 70.5 °F 65.5 °F 29.9 in ENE 3.5 mph 7 mph 84% 0 in 0 W/m2
05:49 70.5 °F 65.3 °F 29.9 in East 2.5 mph 6 mph 84% 0 in 0 W/m2
05:54 70.3 °F 65.3 °F 29.9 in East 2.7 mph 5 mph 84% 0 in 0 W/m2
05:59 70.3 °F 65.5 °F 29.9 in ENE 3.5 mph 6.9 mph 84.8% 0 in 0 W/m2
06:04 70.3 °F 65.7 °F 29.9 in East 3.8 mph 7 mph 85% 0 in 0 W/m2
06:09 70.3 °F 65.7 °F 29.9 in ENE 5.2 mph 9.2 mph 84.9% 0 in 0 W/m2
06:14 70.5 °F 65.3 °F 29.9 in ENE 5.3 mph 9 mph 84% 0 in 0 W/m2
06:19 70.5 °F 65.3 °F 29.9 in ENE 4.8 mph 8.1 mph 84% 0 in 0 W/m2
06:24 70.5 °F 65.5 °F 29.9 in ENE 4.3 mph 8 mph 84% 0 in 0 W/m2
06:29 70.5 °F 65.3 °F 29.9 in ENE 4 mph 7 mph 84% 0 in 5 W/m2
06:34 70.5 °F 65.5 °F 29.9 in East 3.1 mph 6 mph 84% 0 in 9 W/m2
06:39 70.5 °F 65.5 °F 29.9 in East 2.7 mph 6 mph 84% 0 in 12 W/m2
06:44 70.5 °F 65.5 °F 29.9 in ENE 3.4 mph 8 mph 84% 0 in 14 W/m2
06:49 70.5 °F 65.5 °F 29.9 in ENE 4.3 mph 8.1 mph 84% 0 in 18 W/m2
06:54 70.5 °F 65.5 °F 29.9 in ENE 2.9 mph 8 mph 84% 0 in 21 W/m2
06:59 70.7 °F 65.5 °F 29.9 in East 2.1 mph 6 mph 84% 0 in 23 W/m2
07:04 70.7 °F 65.8 °F 29.9 in East 1.9 mph 6 mph 84.5% 0 in 28 W/m2
07:05 70.9 °F 65.7 °F 29.9 in East 2.7 mph 6 mph 84% 0 in 28 W/m2
07:14 71.2 °F 66 °F 29.9 in East 2.2 mph 6 mph 84% 0 in 40 W/m2
07:19 71.4 °F 66.4 °F 29.9 in East 2.1 mph 5 mph 84% 0 in 51 W/m2
07:24 71.6 °F 66.6 °F 29.9 in East 1.6 mph 3.5 mph 84% 0 in 56 W/m2
07:29 72 °F 66.7 °F 29.9 in ESE 1.3 mph 3.5 mph 83.5% 0 in 88 W/m2
07:34 72.3 °F 67.1 °F 29.9 in ENE 1.6 mph 3.5 mph 83.5% 0 in 107 W/m2
07:39 72.9 °F 67.3 °F 29.9 in ENE 2.3 mph 5 mph 83% 0 in 114 W/m2
07:44 73 °F 67.5 °F 29.9 in ENE 2.2 mph 5 mph 83% 0 in 144 W/m2
07:49 73.4 °F 67.8 °F 29.9 in ENE 1.8 mph 5 mph 83% 0 in 174 W/m2
07:54 73.8 °F 68.2 °F 29.9 in East 1.7 mph 4 mph 82.9% 0 in 174 W/m2
07:59 74.1 °F 68.4 °F 29.9 in East 2.5 mph 5 mph 82.5% 0 in 174 W/m2
08:04 74.3 °F 68.4 °F 29.9 in ESE 2.7 mph 5 mph 82.1% 0 in 213 W/m2
08:05 74.3 °F 68.4 °F 29.9 in ESE 2.2 mph 5 mph 82% 0 in 218 W/m2
08:14 74.8 °F 69.1 °F 29.9 in East 2.4 mph 6 mph 82.1% 0 in 234 W/m2
08:19 75.2 °F 69.3 °F 29.9 in East 3.6 mph 6 mph 82% 0 in 234 W/m2
08:24 75.4 °F 69.6 °F 29.9 in East 3.7 mph 6 mph 82% 0 in 244 W/m2
08:29 75.7 °F 69.8 °F 29.9 in East 4.2 mph 8.1 mph 81.7% 0 in 253 W/m2
08:34 75.9 °F 69.8 °F 29.9 in ENE 3.8 mph 8.1 mph 81.5% 0 in 279 W/m2
08:39 76.1 °F 69.8 °F 29.9 in ENE 4 mph 8 mph 81.2% 0 in 279 W/m2
08:44 76.1 °F 70.2 °F 29.9 in ENE 5 mph 8.1 mph 81.9% 0 in 258 W/m2
08:49 76.6 °F 70.3 °F 29.9 in ENE 5.2 mph 8.1 mph 81.2% 0 in 304 W/m2
08:54 77.2 °F 70.7 °F 29.9 in ENE 4.2 mph 8.1 mph 80.4% 0 in 309 W/m2
08:59 77.7 °F 70.9 °F 29.9 in ENE 4.7 mph 9.2 mph 80% 0 in 320 W/m2
09:04 78.1 °F 71.1 °F 29.9 in ENE 7 mph 10.4 mph 79% 0 in 334 W/m2
09:09 78.3 °F 71.4 °F 29.9 in ENE 5.7 mph 10.4 mph 79.3% 0 in 348 W/m2
09:14 78.6 °F 72 °F 29.9 in East 4.6 mph 10 mph 80.1% 0 in 369 W/m2
09:19 78.6 °F 72 °F 29.9 in East 5.7 mph 9.2 mph 80.1% 0 in 390 W/m2
09:24 78.8 °F 72.1 °F 29.9 in East 7 mph 12 mph 80.2% 0 in 410 W/m2
09:29 79 °F 72.1 °F 29.9 in East 7 mph 12 mph 79.8% 0 in 439 W/m2
09:34 79.5 °F 72.7 °F 29.9 in ENE 5.8 mph 12 mph 79.6% 0 in 439 W/m2
09:39 79.9 °F 73 °F 29.9 in ENE 5.3 mph 10 mph 79.5% 0 in 408 W/m2
09:44 79.9 °F 72.7 °F 29.9 in East 6.2 mph 13 mph 79% 0 in 441 W/m2
09:49 79.7 °F 72.5 °F 29.9 in ENE 6.1 mph 13 mph 79% 0 in 448 W/m2
09:54 80.1 °F 73 °F 29.9 in ENE 5.3 mph 10 mph 79.2% 0 in 589 W/m2
09:59 80.2 °F 73.2 °F 29.9 in East 6.6 mph 10.4 mph 79% 0 in 589 W/m2
10:04 79.9 °F 73 °F 29.9 in East 5.4 mph 10.4 mph 79.5% 0 in 577 W/m2
10:09 80.2 °F 73.4 °F 29.9 in ENE 5.1 mph 10 mph 79.6% 0 in 504 W/m2
10:14 80.8 °F 73.8 °F 29.9 in East 4.7 mph 11 mph 79.2% 0 in 496 W/m2
10:19 80.8 °F 73.2 °F 29.9 in ESE 4.4 mph 12 mph 78% 0 in 534 W/m2
10:24 80.8 °F 73.2 °F 29.9 in ESE 4.5 mph 12 mph 78.1% 0 in 534 W/m2
10:29 80.8 °F 73 °F 29.9 in East 5.2 mph 9 mph 77% 0 in 615 W/m2
10:34 81.3 °F 73.2 °F 29.9 in East 3.2 mph 8 mph 76.7% 0 in 615 W/m2
10:39 82 °F 73.8 °F 29.9 in East 4.4 mph 8.1 mph 75.8% 0 in 578 W/m2
10:44 82.4 °F 73.2 °F 29.9 in East 5.5 mph 9.2 mph 73.7% 0 in 582 W/m2
10:49 82.2 °F 72.9 °F 29.9 in East 5.5 mph 9 mph 73.1% 0 in 650 W/m2
10:54 82.4 °F 71.8 °F 29.9 in East 6.8 mph 11.5 mph 70.6% 0 in 679 W/m2
10:59 82.2 °F 72 °F 29.9 in ESE 5 mph 8.1 mph 71% 0 in 693 W/m2
11:04 82.8 °F 72 °F 29.9 in East 4.3 mph 9.2 mph 70.1% 0 in 615 W/m2
11:09 82.8 °F 71.4 °F 29.9 in ESE 6 mph 11.5 mph 68.7% 0 in 587 W/m2
11:14 82.9 °F 72 °F 29.9 in ENE 4.3 mph 12 mph 69.4% 0 in 631 W/m2
11:19 83.5 °F 71.8 °F 29.9 in ENE 5 mph 9.2 mph 67.9% 0 in 631 W/m2
11:24 83.3 °F 72.1 °F 29.9 in ENE 5.5 mph 9.2 mph 68.8% 0 in 647 W/m2
11:29 83.5 °F 72.3 °F 29.9 in East 4.9 mph 9 mph 69.4% 0 in 654 W/m2
11:34 83.5 °F 72 °F 29.9 in East 5.1 mph 9.2 mph 68.5% 0 in 700 W/m2
11:39 83.8 °F 72.1 °F 29.9 in East 5.4 mph 10.4 mph 68.1% 0 in 715 W/m2
11:44 83.7 °F 72.1 °F 29.9 in ESE 7.4 mph 13 mph 68.2% 0 in 668 W/m2
11:49 83.8 °F 72.1 °F 29.9 in ENE 6.2 mph 13 mph 68% 0 in 717 W/m2
11:54 84.4 °F 72.3 °F 29.9 in ENE 3.6 mph 10 mph 67.2% 0 in 647 W/m2
11:59 84.4 °F 72.1 °F 29.9 in ENE 4.2 mph 8 mph 66.9% 0 in 636 W/m2
12:04 84.6 °F 72.3 °F 29.9 in East 5.2 mph 8.1 mph 66.6% 0 in 548 W/m2
12:09 84.4 °F 72 °F 29.9 in East 5 mph 9.2 mph 66.4% 0 in 490 W/m2
12:14 84.6 °F 72.3 °F 29.9 in East 4.6 mph 9 mph 67% 0 in 526 W/m2
12:19 84.2 °F 71.8 °F 29.9 in East 5.3 mph 9.2 mph 66.4% 0 in 522 W/m2
12:24 84 °F 71.8 °F 29.9 in ESE 4.1 mph 9 mph 66.8% 0 in 520 W/m2
12:29 84.2 °F 72 °F 29.9 in ESE 3.3 mph 7 mph 66.9% 0 in 508 W/m2
12:34 84.4 °F 72 °F 29.9 in ESE 2 mph 6 mph 66.5% 0 in 513 W/m2
12:39 84.6 °F 72 °F 29.9 in East 3.1 mph 6 mph 66.1% 0 in 550 W/m2
12:44 84.6 °F 72 °F 29.9 in East 3.6 mph 7 mph 66.2% 0 in 550 W/m2
12:49 84.7 °F 72 °F 29.9 in ESE 3.1 mph 7 mph 65.4% 0 in 545 W/m2
12:54 84.7 °F 71.6 °F 29.9 in East 3.2 mph 7 mph 64.8% 0 in 564 W/m2
12:59 84.7 °F 71.8 °F 29.9 in East 4.5 mph 8.1 mph 65.5% 0 in 570 W/m2
13:04 85.1 °F 72.1 °F 29.9 in ENE 4 mph 9 mph 65.4% 0 in 561 W/m2
13:09 84.9 °F 72 °F 29.9 in East 5 mph 9.2 mph 65.2% 0 in 410 W/m2
13:14 84.9 °F 72.1 °F 29.9 in East 4.5 mph 9 mph 65.9% 0 in 397 W/m2
13:19 84.7 °F 72.3 °F 29.9 in ENE 4.8 mph 7 mph 66.2% 0 in 385 W/m2
13:24 84.9 °F 72.1 °F 29.9 in ENE 4.1 mph 8.1 mph 65.7% 0 in 381 W/m2
13:29 85.3 °F 72.1 °F 29.9 in ENE 4.8 mph 8.1 mph 65% 0 in 357 W/m2
13:34 84.9 °F 72.3 °F 29.9 in ESE 4.3 mph 8 mph 66% 0 in 357 W/m2
13:39 84.9 °F 72.5 °F 29.9 in East 3.7 mph 7 mph 66.3% 0 in 359 W/m2
13:44 85.1 °F 72.5 °F 29.9 in ESE 3.3 mph 7 mph 66.1% 0 in 373 W/m2
13:49 85.3 °F 72.7 °F 29.9 in East 2.4 mph 7 mph 66% 0 in 378 W/m2
13:54 85.3 °F 72.3 °F 29.9 in ESE 3 mph 5 mph 65.4% 0 in 406 W/m2
13:59 85.5 °F 72.7 °F 29.9 in East 3.4 mph 7 mph 65.7% 0 in 473 W/m2
14:04 85.5 °F 72.5 °F 29.9 in ENE 2.8 mph 7 mph 65.3% 0 in 564 W/m2
14:09 85.6 °F 72.3 °F 29.9 in SE 2.9 mph 7 mph 64.5% 0 in 550 W/m2
14:14 85.8 °F 72.1 °F 29.9 in East 2.8 mph 7 mph 64.2% 0 in 420 W/m2
14:19 85.5 °F 71.8 °F 29.9 in East 1.6 mph 7 mph 63.8% 0 in 436 W/m2
14:24 85.6 °F 72.3 °F 29.9 in ENE 2 mph 7 mph 64.5% 0 in 385 W/m2
14:29 85.6 °F 72.5 °F 29.9 in East 3.1 mph 6 mph 65% 0 in 396 W/m2
14:34 85.6 °F 72.9 °F 29.9 in ESE 2.4 mph 6 mph 65.5% 0 in 473 W/m2
14:39 86 °F 73.2 °F 29.9 in NE 2 mph 5 mph 65.5% 0 in 473 W/m2
14:44 85.8 °F 72.5 °F 29.9 in SE 1.5 mph 4 mph 64.6% 0 in 302 W/m2
14:49 85.6 °F 72.3 °F 29.9 in East 1.6 mph 3.5 mph 64.8% 0 in 373 W/m2
14:54 86 °F 72.7 °F 29.9 in ENE 2.1 mph 4 mph 64.6% 0 in 561 W/m2
14:59 86.7 °F 73.2 °F 29.9 in NNE 2.9 mph 5 mph 64.3% 0 in 520 W/m2
15:04 87.4 °F 73.2 °F 29.9 in North 2.5 mph 5 mph 62.9% 0 in 814 W/m2
15:09 88 °F 72.9 °F 29.9 in NE 2.3 mph 5 mph 61.2% 0 in 782 W/m2
15:14 87.4 °F 73 °F 29.9 in North 1.7 mph 5 mph 62.6% 0 in 853 W/m2
15:19 87.3 °F 72.7 °F 29.9 in ENE 1.8 mph 4 mph 61.9% 0 in 853 W/m2
15:24 87.8 °F 73 °F 29.9 in NNE 1.9 mph 6 mph 61.9% 0 in 784 W/m2
15:29 87.8 °F 72.5 °F 29.9 in SE 3 mph 6 mph 60.8% 0 in 666 W/m2
15:34 87.4 °F 72.5 °F 29.9 in East 2.3 mph 6 mph 61.6% 0 in 540 W/m2
15:39 87.4 °F 72.9 °F 29.9 in NE 3.6 mph 7 mph 61.8% 0 in 469 W/m2
15:44 87.1 °F 72.9 °F 29.9 in NNE 3 mph 7 mph 62.8% 0 in 241 W/m2
15:49 86.5 °F 72.1 °F 29.9 in NE 3.3 mph 6 mph 62.3% 0 in 186 W/m2
15:54 86.5 °F 72.1 °F 29.9 in ENE 3.2 mph 6 mph 62.4% 0 in 218 W/m2
15:59 86.5 °F 72.5 °F 29.9 in NNE 3.7 mph 6 mph 63.3% 0 in 218 W/m2
16:04 86.7 °F 73.2 °F 29.9 in North 2.2 mph 6 mph 64.3% 0 in 190 W/m2
16:09 86.5 °F 73 °F 29.9 in North 3.3 mph 5 mph 64.2% 0 in 162 W/m2
16:14 86.4 °F 72.5 °F 29.9 in North 2.8 mph 6 mph 63.6% 0 in 132 W/m2
16:19 86.2 °F 72.7 °F 29.9 in North 2.7 mph 6 mph 64.4% 0 in 123 W/m2
16:24 86 °F 72.3 °F 29.9 in North 2.7 mph 6 mph 63.8% 0 in 98 W/m2
16:29 86 °F 72 °F 29.9 in NNW 2.1 mph 4 mph 62.9% 0 in 84 W/m2
16:39 86 °F 73 °F 29.9 in North 4 mph 7 mph 65.4% 0 in 225 W/m2
16:44 85.8 °F 73.9 °F 29.9 in North 3.5 mph 7 mph 67.8% 0 in 216 W/m2
16:49 85.6 °F 74.1 °F 29.9 in North 3.9 mph 6 mph 68.5% 0 in 190 W/m2
16:54 85.6 °F 73.4 °F 29.9 in NNW 3.5 mph 6 mph 66.8% 0 in 190 W/m2
16:59 85.8 °F 72.9 °F 29.9 in NW 3.8 mph 6 mph 65.2% 0 in 218 W/m2
17:04 86 °F 72.5 °F 29.9 in NNW 3.4 mph 6.9 mph 64.3% 0 in 269 W/m2
17:09 86.2 °F 72.9 °F 29.8 in NNW 3.2 mph 7 mph 64.6% 0 in 269 W/m2
17:14 86.4 °F 72.7 °F 29.8 in North 3.4 mph 7 mph 64% 0 in 287 W/m2
17:19 86.4 °F 72.7 °F 29.8 in North 3.9 mph 7 mph 64% 0 in 325 W/m2
17:24 86 °F 72.7 °F 29.8 in North 4.5 mph 7 mph 64.4% 0 in 213 W/m2
17:29 86 °F 72.3 °F 29.8 in North 3.9 mph 7 mph 63.9% 0 in 253 W/m2
17:34 86 °F 72.1 °F 29.8 in NNW 2.9 mph 7 mph 63.6% 0 in 193 W/m2
17:39 86 °F 72.3 °F 29.8 in North 2.1 mph 5 mph 63.7% 0 in 155 W/m2
17:44 86.2 °F 71.8 °F 29.8 in NNW 2.3 mph 5 mph 62.5% 0 in 132 W/m2
17:49 86 °F 72 °F 29.8 in NNW 2.3 mph 4 mph 63.2% 0 in 95 W/m2
17:54 85.8 °F 72 °F 29.9 in NW 3.1 mph 5 mph 63.4% 0 in 74 W/m2
17:59 85.6 °F 71.6 °F 29.9 in WNW 3.5 mph 5 mph 63% 0 in 40 W/m2
18:04 85.3 °F 71.4 °F 29.9 in WNW 3.2 mph 5 mph 63.3% 0 in 40 W/m2
18:09 85.1 °F 71.6 °F 29.9 in WNW 3.4 mph 6 mph 64% 0 in 53 W/m2
18:14 84.9 °F 71.6 °F 29.9 in WNW 3.1 mph 4.6 mph 64.3% 0 in 77 W/m2
18:19 84.7 °F 71.8 °F 29.9 in WNW 3.2 mph 8.1 mph 65% 0 in 104 W/m2
18:24 84.7 °F 71.8 °F 29.8 in NW 2.9 mph 5 mph 65% 0 in 105 W/m2
18:29 84.9 °F 71.8 °F 29.8 in NW 3.5 mph 6 mph 64.8% 0 in 102 W/m2
18:34 85.1 °F 71.4 °F 29.8 in NW 3.7 mph 7 mph 63.7% 0 in 86 W/m2
18:39 85.1 °F 71.4 °F 29.8 in WNW 4.8 mph 9.2 mph 64% 0 in 72 W/m2
18:44 84.6 °F 71.4 °F 29.8 in WNW 5.6 mph 9 mph 64.7% 0 in 56 W/m2
18:49 84.2 °F 71.2 °F 29.8 in WNW 4.8 mph 8.1 mph 65% 0 in 40 W/m2
18:54 84 °F 70.9 °F 29.8 in WNW 5.2 mph 9.2 mph 65% 0 in 28 W/m2
18:59 83.7 °F 70.7 °F 29.8 in WNW 6.6 mph 9.2 mph 65% 0 in 12 W/m2
19:04 83.5 °F 70.9 °F 29.9 in West 5.7 mph 9.2 mph 65.9% 0 in 7 W/m2
19:09 83.3 °F 70.9 °F 29.9 in West 5.7 mph 10 mph 66.5% 0 in 5 W/m2
19:14 82.9 °F 70.9 °F 29.9 in West 8.1 mph 14 mph 67% 0 in 0 W/m2
19:19 82.8 °F 70.9 °F 29.9 in West 7.8 mph 14 mph 67.7% 0 in 0 W/m2
19:24 82.2 °F 71.4 °F 29.9 in West 8 mph 13 mph 70.1% 0 in 0 W/m2
19:29 81.1 °F 72 °F 29.9 in West 6.6 mph 13 mph 73.6% 0 in 0 W/m2
19:34 79.9 °F 72.1 °F 29.9 in SW 4.8 mph 12 mph 77.1% 0.01 in 0 W/m2
19:39 79.3 °F 72.1 °F 29.9 in SSW 3.4 mph 8 mph 79.2% 0.01 in 0 W/m2
19:44 78.6 °F 72.5 °F 29.9 in South 3 mph 6 mph 81.7% 0.02 in 0 W/m2
19:49 77.4 °F 72.1 °F 29.8 in SE 5.3 mph 12 mph 84% 0.02 in 0 W/m2
19:54 75.9 °F 71.4 °F 29.8 in ESE 8 mph 12 mph 86.1% 0.02 in 0 W/m2
19:59 75 °F 71.2 °F 29.8 in SE 7.4 mph 12 mph 87.7% 0.02 in 0 W/m2
20:04 74.8 °F 71.2 °F 29.8 in ESE 7.8 mph 12 mph 89% 0.02 in 5 W/m2
20:09 74.7 °F 71.2 °F 29.8 in ESE 7 mph 13 mph 89.2% 0.02 in 5 W/m2
20:14 74.3 °F 71.2 °F 29.9 in East 9.4 mph 16.1 mph 90% 0.02 in 5 W/m2
20:19 73.9 °F 70.9 °F 29.9 in ESE 8.6 mph 17.3 mph 89.9% 0.02 in 0 W/m2
20:24 73.4 °F 70.3 °F 29.9 in ESE 6 mph 17 mph 90% 0.02 in 0 W/m2
20:29 73 °F 70 °F 29.9 in ESE 7.6 mph 12 mph 90% 0.02 in 0 W/m2
20:34 72.7 °F 69.6 °F 29.9 in East 6.6 mph 12 mph 90% 0.02 in 0 W/m2
20:39 72.3 °F 69.1 °F 29.9 in East 8 mph 15 mph 89.3% 0.01 in 0 W/m2
20:44 72 °F 68.5 °F 29.9 in East 7 mph 15 mph 89% 0 in 0 W/m2
20:49 71.8 °F 68.4 °F 29.9 in East 7.1 mph 13 mph 89% 0 in 0 W/m2
20:54 71.6 °F 68 °F 29.9 in East 6 mph 13 mph 88.3% 0 in 0 W/m2
20:59 71.6 °F 68 °F 29.9 in East 4.8 mph 9 mph 88.4% 0 in 0 W/m2
21:04 71.6 °F 68.2 °F 29.9 in ESE 3.7 mph 8 mph 88.8% 0 in 0 W/m2
21:09 71.8 °F 68.4 °F 29.9 in ESE 5.2 mph 8.1 mph 89% 0 in 0 W/m2
21:14 71.8 °F 68.4 °F 29.9 in East 5.4 mph 10 mph 89% 0 in 0 W/m2
21:19 71.8 °F 68.4 °F 29.9 in ESE 5.8 mph 10 mph 89% 0 in 0 W/m2
21:24 72 °F 68.5 °F 29.9 in ESE 6 mph 11.5 mph 88.8% 0 in 0 W/m2
21:29 72 °F 68.2 °F 29.9 in ESE 5.7 mph 12 mph 87.8% 0 in 0 W/m2
21:34 72.1 °F 68 °F 29.9 in East 4.2 mph 9.2 mph 87% 0 in 0 W/m2
21:39 72.1 °F 68 °F 29.9 in East 4 mph 9 mph 87% 0 in 0 W/m2
21:44 72 °F 68 °F 29.9 in ESE 5.4 mph 9.2 mph 87% 0 in 0 W/m2
21:49 72 °F 67.8 °F 29.9 in ESE 3 mph 9 mph 87% 0 in 0 W/m2
21:54 71.8 °F 68 °F 29.9 in East 1.8 mph 7 mph 87.6% 0 in 0 W/m2
21:59 71.8 °F 68.2 °F 29.9 in ENE 2.1 mph 6 mph 88% 0 in 0 W/m2
22:04 71.8 °F 68 °F 29.9 in NE 3.2 mph 6 mph 88% 0 in 0 W/m2
22:09 71.8 °F 68 °F 29.9 in NE 2.8 mph 6 mph 88% 0 in 0 W/m2
22:14 71.6 °F 67.8 °F 29.9 in NE 3 mph 7 mph 88% 0 in 0 W/m2
22:19 71.4 °F 67.6 °F 29.9 in ENE 4.5 mph 7 mph 88% 0 in 0 W/m2
22:24 71.2 °F 67.6 °F 29.9 in NE 4.2 mph 7 mph 88.2% 0 in 0 W/m2
22:29 71.1 °F 67.6 °F 29.9 in NE 3.1 mph 5 mph 89% 0 in 0 W/m2
22:34 71.1 °F 67.6 °F 29.9 in NNE 2.1 mph 5 mph 89% 0 in 0 W/m2
22:39 71.1 °F 67.6 °F 29.9 in NNE 2.6 mph 5 mph 89% 0 in 0 W/m2
22:44 70.9 °F 67.5 °F 29.9 in NE 2.8 mph 5 mph 89.1% 0 in 0 W/m2
22:49 70.7 °F 67.6 °F 29.9 in NE 2.2 mph 6 mph 90% 0 in 0 W/m2
22:54 70.7 °F 67.6 °F 29.9 in ENE 2.3 mph 6 mph 90% 0 in 0 W/m2
22:59 70.5 °F 67.5 °F 29.9 in ENE 2.7 mph 5 mph 90% 0 in 0 W/m2
23:04 70.5 °F 67.6 °F 29.9 in East 2.2 mph 5 mph 91% 0 in 0 W/m2
23:09 70.3 °F 67.5 °F 29.9 in ESE 1.8 mph 5 mph 90.8% 0 in 0 W/m2
23:14 70.2 °F 67.3 °F 29.9 in East 2 mph 5 mph 91% 0 in 0 W/m2
23:19 70.2 °F 67.3 °F 29.9 in East 1.7 mph 5 mph 91% 0 in 0 W/m2
23:24 70.2 °F 67.3 °F 29.9 in ESE 0.6 mph 3.5 mph 91% 0 in 0 W/m2
23:29 70.2 °F 67.3 °F 29.9 in SE 0.2 mph 3 mph 91% 0 in 0 W/m2
23:34 70.3 °F 67.5 °F 29.9 in SE 0.6 mph 1.2 mph 91% 0 in 0 W/m2
23:39 70.2 °F 67.5 °F 29.9 in SE 0.4 mph 1.2 mph 91% 0 in 0 W/m2
23:44 70.2 °F 67.5 °F 29.9 in SE 0.8 mph 3 mph 91% 0 in 0 W/m2
23:49 70 °F 67.3 °F 29.9 in SE 1.1 mph 3 mph 91.3% 0 in 0 W/m2
23:54 70 °F 67.5 °F 29.9 in SSW 1.1 mph 3.5 mph 92% 0 in 0 W/m2
23:59 70 °F 67.6 °F 29.9 in SW 1.1 mph 3.5 mph 92% 0 in 0 W/m2
Stazione Meteorologica MeteoMincio Rivalta s/M (MN)
Con i complimenti di Weather Underground - 4 mb


METEO PILLOLE
Maggior quantità di pioggia caduta in 48 ore
Cherrapunji (1313 m) - India
Tra il 15 e 16 giugno 1995 caddero 2493mm di pioggia.

Do NOT follow this link or you will be banned from the site!